sensor_id;sensor_type;location;lat;lon;timestamp;pressure;altitude;pressure_sealevel;temperature;humidity
54038;BME280;39954;48.844;9.726;2023-05-29T00:00:37;96115.09;;;10.52;100.00
54038;BME280;39954;48.844;9.726;2023-05-29T00:01:42;96118.56;;;10.53;100.00
54038;BME280;39954;48.844;9.726;2023-05-29T00:02:45;96116.50;;;10.58;100.00
54038;BME280;39954;48.844;9.726;2023-05-29T00:03:50;96117.50;;;10.56;100.00
54038;BME280;39954;48.844;9.726;2023-05-29T00:04:53;96121.22;;;10.51;100.00
54038;BME280;39954;48.844;9.726;2023-05-29T00:05:58;96121.28;;;10.50;100.00
54038;BME280;39954;48.844;9.726;2023-05-29T00:07:00;96123.06;;;10.49;100.00
54038;BME280;39954;48.844;9.726;2023-05-29T00:08:05;96126.25;;;10.55;100.00
54038;BME280;39954;48.844;9.726;2023-05-29T00:09:10;96122.63;;;10.57;100.00
54038;BME280;39954;48.844;9.726;2023-05-29T00:10:15;96122.56;;;10.59;100.00
54038;BME280;39954;48.844;9.726;2023-05-29T00:11:18;96119.97;;;10.59;100.00
54038;BME280;39954;48.844;9.726;2023-05-29T00:12:22;96124.72;;;10.66;100.00
54038;BME280;39954;48.844;9.726;2023-05-29T00:13:24;96126.41;;;10.67;100.00
54038;BME280;39954;48.844;9.726;2023-05-29T00:14:29;96118.69;;;10.66;100.00
54038;BME280;39954;48.844;9.726;2023-05-29T00:15:31;96119.44;;;10.68;100.00
54038;BME280;39954;48.844;9.726;2023-05-29T00:16:36;96118.31;;;10.72;100.00
54038;BME280;39954;48.844;9.726;2023-05-29T00:17:39;96117.13;;;10.78;100.00
54038;BME280;39954;48.844;9.726;2023-05-29T00:18:45;96118.72;;;10.80;100.00
54038;BME280;39954;48.844;9.726;2023-05-29T00:19:48;96116.06;;;10.82;100.00
54038;BME280;39954;48.844;9.726;2023-05-29T00:20:52;96110.09;;;10.80;100.00
54038;BME280;39954;48.844;9.726;2023-05-29T00:21:55;96109.16;;;10.81;100.00
54038;BME280;39954;48.844;9.726;2023-05-29T00:22:59;96110.94;;;10.80;100.00
54038;BME280;39954;48.844;9.726;2023-05-29T00:24:06;96105.72;;;10.80;100.00
54038;BME280;39954;48.844;9.726;2023-05-29T00:25:11;96110.69;;;10.85;100.00
54038;BME280;39954;48.844;9.726;2023-05-29T00:26:16;96112.69;;;10.80;100.00
54038;BME280;39954;48.844;9.726;2023-05-29T00:27:18;96111.75;;;10.81;100.00
54038;BME280;39954;48.844;9.726;2023-05-29T00:28:23;96115.94;;;10.83;100.00
54038;BME280;39954;48.844;9.726;2023-05-29T00:29:25;96107.44;;;10.81;100.00
54038;BME280;39954;48.844;9.726;2023-05-29T00:30:30;96104.25;;;10.76;100.00
54038;BME280;39954;48.844;9.726;2023-05-29T00:31:32;96110.09;;;10.80;100.00
54038;BME280;39954;48.844;9.726;2023-05-29T00:32:37;96107.31;;;10.83;100.00
54038;BME280;39954;48.844;9.726;2023-05-29T00:33:39;96107.78;;;10.89;100.00
54038;BME280;39954;48.844;9.726;2023-05-29T00:34:44;96109.75;;;10.86;100.00
54038;BME280;39954;48.844;9.726;2023-05-29T00:35:47;96106.31;;;10.85;100.00
54038;BME280;39954;48.844;9.726;2023-05-29T00:36:52;96104.47;;;10.87;100.00
54038;BME280;39954;48.844;9.726;2023-05-29T00:37:57;96106.56;;;10.81;100.00
54038;BME280;39954;48.844;9.726;2023-05-29T00:39:02;96104.91;;;10.80;100.00
54038;BME280;39954;48.844;9.726;2023-05-29T00:40:06;96105.91;;;10.77;100.00
54038;BME280;39954;48.844;9.726;2023-05-29T00:41:15;96104.72;;;10.83;100.00
54038;BME280;39954;48.844;9.726;2023-05-29T00:42:17;96101.28;;;10.82;100.00
54038;BME280;39954;48.844;9.726;2023-05-29T00:43:22;96103.88;;;10.82;100.00
54038;BME280;39954;48.844;9.726;2023-05-29T00:44:24;96105.72;;;10.80;100.00
54038;BME280;39954;48.844;9.726;2023-05-29T00:45:29;96105.91;;;10.77;100.00
54038;BME280;39954;48.844;9.726;2023-05-29T00:46:33;96106.75;;;10.78;100.00
54038;BME280;39954;48.844;9.726;2023-05-29T00:47:37;96105.06;;;10.77;100.00
54038;BME280;39954;48.844;9.726;2023-05-29T00:48:40;96106.91;;;10.74;100.00
54038;BME280;39954;48.844;9.726;2023-05-29T00:49:46;96109.34;;;10.78;100.00
54038;BME280;39954;48.844;9.726;2023-05-29T00:50:48;96105.16;;;10.75;100.00
54038;BME280;39954;48.844;9.726;2023-05-29T00:51:54;96104.50;;;10.71;100.00
54038;BME280;39954;48.844;9.726;2023-05-29T00:52:57;96107.19;;;10.70;100.00
54038;BME280;39954;48.844;9.726;2023-05-29T00:54:04;96099.91;;;10.61;100.00
54038;BME280;39954;48.844;9.726;2023-05-29T00:55:07;96103.63;;;10.57;100.00
54038;BME280;39954;48.844;9.726;2023-05-29T00:56:16;96105.03;;;10.62;100.00
54038;BME280;39954;48.844;9.726;2023-05-29T00:57:19;96096.41;;;10.62;100.00
54038;BME280;39954;48.844;9.726;2023-05-29T00:58:24;96095.88;;;10.55;100.00
54038;BME280;39954;48.844;9.726;2023-05-29T00:59:30;96101.38;;;10.50;100.00
54038;BME280;39954;48.844;9.726;2023-05-29T01:00:35;96091.28;;;10.44;100.00
54038;BME280;39954;48.844;9.726;2023-05-29T01:01:40;96102.78;;;10.40;100.00
54038;BME280;39954;48.844;9.726;2023-05-29T01:02:46;96100.38;;;10.37;100.00
54038;BME280;39954;48.844;9.726;2023-05-29T01:03:49;96101.28;;;10.36;100.00
54038;BME280;39954;48.844;9.726;2023-05-29T01:04:56;96097.94;;;10.34;100.00
54038;BME280;39954;48.844;9.726;2023-05-29T01:05:59;96103.31;;;10.31;100.00
54038;BME280;39954;48.844;9.726;2023-05-29T01:07:05;96109.25;;;10.33;100.00
54038;BME280;39954;48.844;9.726;2023-05-29T01:08:09;96105.28;;;10.26;100.00
54038;BME280;39954;48.844;9.726;2023-05-29T01:09:14;96099.44;;;10.22;100.00
54038;BME280;39954;48.844;9.726;2023-05-29T01:10:16;96102.28;;;10.18;100.00
54038;BME280;39954;48.844;9.726;2023-05-29T01:11:29;96102.53;;;10.13;100.00
54038;BME280;39954;48.844;9.726;2023-05-29T01:12:38;96099.19;;;10.11;100.00
54038;BME280;39954;48.844;9.726;2023-05-29T01:13:45;96095.91;;;10.07;100.00
54038;BME280;39954;48.844;9.726;2023-05-29T01:15:00;96096.84;;;10.06;100.00
54038;BME280;39954;48.844;9.726;2023-05-29T01:16:12;96099.09;;;10.13;100.00
54038;BME280;39954;48.844;9.726;2023-05-29T01:17:34;96099.09;;;10.13;100.00
54038;BME280;39954;48.844;9.726;2023-05-29T01:18:54;96098.00;;;10.17;100.00
54038;BME280;39954;48.844;9.726;2023-05-29T01:20:23;96099.25;;;10.09;100.00
54038;BME280;39954;48.844;9.726;2023-05-29T01:21:45;96100.38;;;10.05;100.00
54038;BME280;39954;48.844;9.726;2023-05-29T01:23:04;96098.94;;;10.00;100.00
54038;BME280;39954;48.844;9.726;2023-05-29T01:24:14;96097.19;;;10.00;100.00
54038;BME280;39954;48.844;9.726;2023-05-29T01:25:27;96096.59;;;9.95;100.00
54038;BME280;39954;48.844;9.726;2023-05-29T01:26:50;96093.56;;;9.87;100.00
54038;BME280;39954;48.844;9.726;2023-05-29T01:27:56;96097.09;;;9.86;100.00
54038;BME280;39954;48.844;9.726;2023-05-29T01:29:04;96093.91;;;9.81;100.00
54038;BME280;39954;48.844;9.726;2023-05-29T01:30:12;96092.31;;;9.78;100.00
54038;BME280;39954;48.844;9.726;2023-05-29T01:31:19;96087.28;;;9.75;100.00
54038;BME280;39954;48.844;9.726;2023-05-29T01:32:25;96088.34;;;9.71;100.00
54038;BME280;39954;48.844;9.726;2023-05-29T01:33:28;96085.84;;;9.70;100.00
54038;BME280;39954;48.844;9.726;2023-05-29T01:34:32;96088.44;;;9.70;100.00
54038;BME280;39954;48.844;9.726;2023-05-29T01:35:34;96090.34;;;9.66;100.00
54038;BME280;39954;48.844;9.726;2023-05-29T01:36:39;96086.19;;;9.63;100.00
54038;BME280;39954;48.844;9.726;2023-05-29T01:37:41;96091.44;;;9.62;100.00
54038;BME280;39954;48.844;9.726;2023-05-29T01:38:46;96094.84;;;9.62;100.00
54038;BME280;39954;48.844;9.726;2023-05-29T01:39:49;96086.31;;;9.60;100.00
54038;BME280;39954;48.844;9.726;2023-05-29T01:40:53;96094.69;;;9.66;100.00
54038;BME280;39954;48.844;9.726;2023-05-29T01:41:59;96085.31;;;9.63;100.00
54038;BME280;39954;48.844;9.726;2023-05-29T01:43:05;96094.53;;;9.69;100.00
54038;BME280;39954;48.844;9.726;2023-05-29T01:44:08;96085.09;;;9.68;100.00
54038;BME280;39954;48.844;9.726;2023-05-29T01:45:14;96092.88;;;9.68;100.00
54038;BME280;39954;48.844;9.726;2023-05-29T01:46:18;96089.59;;;9.64;100.00
54038;BME280;39954;48.844;9.726;2023-05-29T01:47:23;96089.50;;;9.66;100.00
54038;BME280;39954;48.844;9.726;2023-05-29T01:48:27;96090.59;;;9.61;100.00
54038;BME280;39954;48.844;9.726;2023-05-29T01:49:32;96089.50;;;9.66;100.00
54038;BME280;39954;48.844;9.726;2023-05-29T01:50:34;96088.84;;;9.62;100.00
54038;BME280;39954;48.844;9.726;2023-05-29T01:51:39;96087.41;;;9.56;100.00
54038;BME280;39954;48.844;9.726;2023-05-29T01:52:42;96091.75;;;9.56;100.00
54038;BME280;39954;48.844;9.726;2023-05-29T01:53:47;96096.13;;;9.55;100.00
54038;BME280;39954;48.844;9.726;2023-05-29T01:54:49;96094.44;;;9.54;100.00
54038;BME280;39954;48.844;9.726;2023-05-29T01:55:54;96095.19;;;9.56;100.00
54038;BME280;39954;48.844;9.726;2023-05-29T01:56:59;96095.19;;;9.56;100.00
54038;BME280;39954;48.844;9.726;2023-05-29T01:58:08;96087.72;;;9.50;100.00
54038;BME280;39954;48.844;9.726;2023-05-29T01:59:12;96092.75;;;9.53;100.00
54038;BME280;39954;48.844;9.726;2023-05-29T02:00:18;96088.50;;;9.52;100.00
54038;BME280;39954;48.844;9.726;2023-05-29T02:01:21;96088.72;;;9.48;100.00
54038;BME280;39954;48.844;9.726;2023-05-29T02:02:26;96086.38;;;9.43;100.00
54038;BME280;39954;48.844;9.726;2023-05-29T02:03:28;96080.44;;;9.41;100.00
54038;BME280;39954;48.844;9.726;2023-05-29T02:04:33;96082.78;;;9.46;100.00
54038;BME280;39954;48.844;9.726;2023-05-29T02:05:35;96088.06;;;9.44;100.00
54038;BME280;39954;48.844;9.726;2023-05-29T02:06:40;96088.97;;;9.43;100.00
54038;BME280;39954;48.844;9.726;2023-05-29T02:07:43;96083.09;;;9.39;100.00
54038;BME280;39954;48.844;9.726;2023-05-29T02:08:48;96088.22;;;9.41;100.00
54038;BME280;39954;48.844;9.726;2023-05-29T02:09:50;96082.44;;;9.36;100.00
54038;BME280;39954;48.844;9.726;2023-05-29T02:10:54;96089.69;;;9.29;100.00
54038;BME280;39954;48.844;9.726;2023-05-29T02:12:00;96090.50;;;9.30;100.00
54038;BME280;39954;48.844;9.726;2023-05-29T02:13:05;96091.88;;;9.37;100.00
54038;BME280;39954;48.844;9.726;2023-05-29T02:14:07;96084.41;;;9.31;100.00
54038;BME280;39954;48.844;9.726;2023-05-29T02:15:12;96082.72;;;9.30;100.00
54038;BME280;39954;48.844;9.726;2023-05-29T02:16:14;96089.78;;;9.28;100.00
54038;BME280;39954;48.844;9.726;2023-05-29T02:17:22;96086.47;;;9.24;100.00
54038;BME280;39954;48.844;9.726;2023-05-29T02:18:24;96090.44;;;9.31;100.00
54038;BME280;39954;48.844;9.726;2023-05-29T02:19:29;96090.59;;;9.28;100.00
54038;BME280;39954;48.844;9.726;2023-05-29T02:20:31;96081.06;;;9.29;100.00
54038;BME280;39954;48.844;9.726;2023-05-29T02:21:38;96083.75;;;9.27;100.00
54038;BME280;39954;48.844;9.726;2023-05-29T02:22:41;96080.44;;;9.24;100.00
54038;BME280;39954;48.844;9.726;2023-05-29T02:23:47;96087.50;;;9.22;100.00
54038;BME280;39954;48.844;9.726;2023-05-29T02:24:49;96087.63;;;9.18;100.00
54038;BME280;39954;48.844;9.726;2023-05-29T02:25:54;96083.47;;;9.16;100.00
54038;BME280;39954;48.844;9.726;2023-05-29T02:26:56;96084.91;;;9.22;100.00
54038;BME280;39954;48.844;9.726;2023-05-29T02:28:05;96089.16;;;9.23;100.00
54038;BME280;39954;48.844;9.726;2023-05-29T02:29:08;96087.50;;;9.22;100.00
54038;BME280;39954;48.844;9.726;2023-05-29T02:30:12;96086.25;;;9.29;100.00
54038;BME280;39954;48.844;9.726;2023-05-29T02:31:15;96090.09;;;9.22;100.00
54038;BME280;39954;48.844;9.726;2023-05-29T02:32:19;96091.75;;;9.23;100.00
54038;BME280;39954;48.844;9.726;2023-05-29T02:33:21;96088.50;;;9.19;100.00
54038;BME280;39954;48.844;9.726;2023-05-29T02:34:26;96092.91;;;9.17;100.00
54038;BME280;39954;48.844;9.726;2023-05-29T02:35:28;96089.38;;;9.18;100.00
54038;BME280;39954;48.844;9.726;2023-05-29T02:36:33;96088.50;;;9.19;100.00
54038;BME280;39954;48.844;9.726;2023-05-29T02:37:38;96091.75;;;9.23;100.00
54038;BME280;39954;48.844;9.726;2023-05-29T02:38:43;96095.13;;;9.25;100.00
54038;BME280;39954;48.844;9.726;2023-05-29T02:39:46;96089.94;;;9.25;100.00
54038;BME280;39954;48.844;9.726;2023-05-29T02:40:51;96091.00;;;9.21;100.00
54038;BME280;39954;48.844;9.726;2023-05-29T02:41:53;96090.00;;;9.23;100.00
54038;BME280;39954;48.844;9.726;2023-05-29T02:42:58;96089.94;;;9.25;100.00
54038;BME280;39954;48.844;9.726;2023-05-29T02:44:03;96090.09;;;9.22;100.00
54038;BME280;39954;48.844;9.726;2023-05-29T02:45:09;96091.16;;;9.17;100.00
54038;BME280;39954;48.844;9.726;2023-05-29T02:46:11;96090.09;;;9.22;100.00
54038;BME280;39954;48.844;9.726;2023-05-29T02:47:16;96086.41;;;9.26;100.00
54038;BME280;39954;48.844;9.726;2023-05-29T02:48:18;96085.41;;;9.28;100.00
54038;BME280;39954;48.844;9.726;2023-05-29T02:49:22;96090.59;;;9.28;100.00
54038;BME280;39954;48.844;9.726;2023-05-29T02:50:25;96092.03;;;9.34;100.00
54038;BME280;39954;48.844;9.726;2023-05-29T02:51:30;96082.72;;;9.30;100.00
54038;BME280;39954;48.844;9.726;2023-05-29T02:52:34;96091.44;;;9.29;100.00
54038;BME280;39954;48.844;9.726;2023-05-29T02:53:39;96091.38;;;9.30;100.00
54038;BME280;39954;48.844;9.726;2023-05-29T02:54:42;96091.28;;;9.32;100.00
54038;BME280;39954;48.844;9.726;2023-05-29T02:55:47;96086.84;;;9.34;100.00
54038;BME280;39954;48.844;9.726;2023-05-29T02:56:50;96079.84;;;9.36;100.00
54038;BME280;39954;48.844;9.726;2023-05-29T02:57:54;96084.19;;;9.35;100.00
54038;BME280;39954;48.844;9.726;2023-05-29T02:58:58;96078.06;;;9.36;100.00
54038;BME280;39954;48.844;9.726;2023-05-29T03:00:07;96080.66;;;9.36;100.00
54038;BME280;39954;48.844;9.726;2023-05-29T03:01:10;96086.69;;;9.37;100.00
54038;BME280;39954;48.844;9.726;2023-05-29T03:02:15;96085.94;;;9.35;100.00
54038;BME280;39954;48.844;9.726;2023-05-29T03:03:18;96090.94;;;9.38;100.00
54038;BME280;39954;48.844;9.726;2023-05-29T03:04:22;96087.53;;;9.37;100.00
54038;BME280;39954;48.844;9.726;2023-05-29T03:05:25;96085.09;;;9.34;100.00
54038;BME280;39954;48.844;9.726;2023-05-29T03:06:30;96087.00;;;9.31;100.00
54038;BME280;39954;48.844;9.726;2023-05-29T03:07:34;96080.91;;;9.32;100.00
54038;BME280;39954;48.844;9.726;2023-05-29T03:08:38;96086.91;;;9.32;100.00
54038;BME280;39954;48.844;9.726;2023-05-29T03:09:42;96087.78;;;9.33;100.00
54038;BME280;39954;48.844;9.726;2023-05-29T03:10:46;96085.09;;;9.34;100.00
54038;BME280;39954;48.844;9.726;2023-05-29T03:11:49;96081.50;;;9.37;100.00
54038;BME280;39954;48.844;9.726;2023-05-29T03:12:54;96084.25;;;9.34;100.00
54038;BME280;39954;48.844;9.726;2023-05-29T03:13:57;96079.75;;;9.37;100.00
54038;BME280;39954;48.844;9.726;2023-05-29T03:15:05;96083.34;;;9.35;100.00
54038;BME280;39954;48.844;9.726;2023-05-29T03:16:07;96078.75;;;9.40;100.00
54038;BME280;39954;48.844;9.726;2023-05-29T03:17:12;96078.59;;;9.43;100.00
54038;BME280;39954;48.844;9.726;2023-05-29T03:18:15;96076.16;;;9.40;100.00
54038;BME280;39954;48.844;9.726;2023-05-29T03:19:19;96081.59;;;9.35;100.00
54038;BME280;39954;48.844;9.726;2023-05-29T03:20:21;96080.06;;;9.31;100.00
54038;BME280;39954;48.844;9.726;2023-05-29T03:21:28;96085.25;;;9.31;100.00
54038;BME280;39954;48.844;9.726;2023-05-29T03:22:30;96076.88;;;9.26;100.00
54038;BME280;39954;48.844;9.726;2023-05-29T03:23:35;96085.75;;;9.22;100.00
54038;BME280;39954;48.844;9.726;2023-05-29T03:24:37;96086.63;;;9.21;100.00
54038;BME280;39954;48.844;9.726;2023-05-29T03:25:42;96087.06;;;9.13;100.00
54038;BME280;39954;48.844;9.726;2023-05-29T03:26:44;96078.66;;;9.08;100.00
54038;BME280;39954;48.844;9.726;2023-05-29T03:27:49;96075.31;;;9.06;100.00
54038;BME280;39954;48.844;9.726;2023-05-29T03:28:52;96081.31;;;9.07;100.00
54038;BME280;39954;48.844;9.726;2023-05-29T03:29:57;96080.31;;;9.09;100.00
54038;BME280;39954;48.844;9.726;2023-05-29T03:31:02;96081.31;;;9.07;100.00
54038;BME280;39954;48.844;9.726;2023-05-29T03:32:07;96076.44;;;9.01;100.00
54038;BME280;39954;48.844;9.726;2023-05-29T03:33:09;96080.03;;;8.98;100.00
54038;BME280;39954;48.844;9.726;2023-05-29T03:34:14;96080.19;;;8.95;100.00
54038;BME280;39954;48.844;9.726;2023-05-29T03:35:17;96077.44;;;8.98;100.00
54038;BME280;39954;48.844;9.726;2023-05-29T03:36:22;96077.38;;;9.00;100.00
54038;BME280;39954;48.844;9.726;2023-05-29T03:37:27;96068.91;;;8.96;100.00
54038;BME280;39954;48.844;9.726;2023-05-29T03:38:29;96081.13;;;8.94;100.00
54038;BME280;39954;48.844;9.726;2023-05-29T03:39:34;96080.81;;;9.00;100.00
54038;BME280;39954;48.844;9.726;2023-05-29T03:40:36;96073.34;;;8.94;100.00
54038;BME280;39954;48.844;9.726;2023-05-29T03:41:41;96070.91;;;8.91;100.00
54038;BME280;39954;48.844;9.726;2023-05-29T03:42:43;96071.81;;;8.90;100.00
54038;BME280;39954;48.844;9.726;2023-05-29T03:43:48;96076.25;;;8.88;100.00
54038;BME280;39954;48.844;9.726;2023-05-29T03:44:50;96070.03;;;8.90;100.00
54038;BME280;39954;48.844;9.726;2023-05-29T03:45:55;96071.06;;;8.88;100.00
54038;BME280;39954;48.844;9.726;2023-05-29T03:47:00;96078.59;;;8.92;100.00
54038;BME280;39954;48.844;9.726;2023-05-29T03:48:05;96070.59;;;8.97;100.00
54038;BME280;39954;48.844;9.726;2023-05-29T03:49:07;96075.53;;;9.02;100.00
54038;BME280;39954;48.844;9.726;2023-05-29T03:50:12;96076.44;;;9.01;100.00
54038;BME280;39954;48.844;9.726;2023-05-29T03:51:17;96074.69;;;9.01;100.00
54038;BME280;39954;48.844;9.726;2023-05-29T03:52:21;96073.78;;;9.02;100.00
54038;BME280;39954;48.844;9.726;2023-05-29T03:53:24;96081.41;;;9.05;100.00
54038;BME280;39954;48.844;9.726;2023-05-29T03:54:28;96086.50;;;9.07;100.00
54038;BME280;39954;48.844;9.726;2023-05-29T03:55:31;96078.72;;;9.07;100.00
54038;BME280;39954;48.844;9.726;2023-05-29T03:56:36;96079.50;;;9.09;100.00
54038;BME280;39954;48.844;9.726;2023-05-29T03:57:38;96088.94;;;9.10;100.00
54038;BME280;39954;48.844;9.726;2023-05-29T03:58:44;96082.91;;;9.09;100.00
54038;BME280;39954;48.844;9.726;2023-05-29T03:59:46;96090.84;;;9.06;100.00
54038;BME280;39954;48.844;9.726;2023-05-29T04:00:51;96085.81;;;9.03;100.00
54038;BME280;39954;48.844;9.726;2023-05-29T04:01:53;96091.00;;;9.03;100.00
54038;BME280;39954;48.844;9.726;2023-05-29T04:03:01;96091.00;;;9.03;100.00
54038;BME280;39954;48.844;9.726;2023-05-29T04:04:04;96090.09;;;9.04;100.00
54038;BME280;39954;48.844;9.726;2023-05-29T04:05:09;96089.19;;;9.05;100.00
54038;BME280;39954;48.844;9.726;2023-05-29T04:06:11;96096.03;;;9.06;100.00
54038;BME280;39954;48.844;9.726;2023-05-29T04:07:16;96094.28;;;9.07;100.00
54038;BME280;39954;48.844;9.726;2023-05-29T04:08:20;96090.84;;;9.06;100.00
54038;BME280;39954;48.844;9.726;2023-05-29T04:09:25;96097.81;;;9.06;100.00
54038;BME280;39954;48.844;9.726;2023-05-29T04:10:27;96090.69;;;9.09;100.00
54038;BME280;39954;48.844;9.726;2023-05-29T04:11:35;96087.34;;;9.07;100.00
54038;BME280;39954;48.844;9.726;2023-05-29T04:12:37;96097.59;;;9.10;100.00
54038;BME280;39954;48.844;9.726;2023-05-29T04:13:42;96092.41;;;9.10;100.00
54038;BME280;39954;48.844;9.726;2023-05-29T04:14:45;96094.88;;;9.12;100.00
54038;BME280;39954;48.844;9.726;2023-05-29T04:15:49;96095.56;;;9.15;100.00
54038;BME280;39954;48.844;9.726;2023-05-29T04:16:55;96086.72;;;9.19;100.00
54038;BME280;39954;48.844;9.726;2023-05-29T04:18:03;96094.41;;;9.21;100.00
54038;BME280;39954;48.844;9.726;2023-05-29T04:19:05;96100.13;;;9.28;100.00
54038;BME280;39954;48.844;9.726;2023-05-29T04:20:11;96098.28;;;9.30;100.00
54038;BME280;39954;48.844;9.726;2023-05-29T04:21:16;96098.06;;;9.34;100.00
54038;BME280;39954;48.844;9.726;2023-05-29T04:22:18;96101.25;;;9.39;100.00
54038;BME280;39954;48.844;9.726;2023-05-29T04:23:23;96100.16;;;9.44;100.00
54038;BME280;39954;48.844;9.726;2023-05-29T04:24:25;96106.13;;;9.46;100.00
54038;BME280;39954;48.844;9.726;2023-05-29T04:25:30;96106.78;;;9.49;100.00
54038;BME280;39954;48.844;9.726;2023-05-29T04:26:32;96104.91;;;9.53;100.00
54038;BME280;39954;48.844;9.726;2023-05-29T04:27:37;96109.00;;;9.57;100.00
54038;BME280;39954;48.844;9.726;2023-05-29T04:28:41;96106.06;;;9.63;100.00
54038;BME280;39954;48.844;9.726;2023-05-29T04:29:46;96112.69;;;9.69;100.00
54038;BME280;39954;48.844;9.726;2023-05-29T04:30:48;96109.09;;;9.71;100.00
54038;BME280;39954;48.844;9.726;2023-05-29T04:31:54;96112.22;;;9.78;100.00
54038;BME280;39954;48.844;9.726;2023-05-29T04:32:56;96119.69;;;9.84;100.00
54038;BME280;39954;48.844;9.726;2023-05-29T04:34:04;96110.91;;;9.86;100.00
54038;BME280;39954;48.844;9.726;2023-05-29T04:35:08;96113.50;;;9.86;100.00
54038;BME280;39954;48.844;9.726;2023-05-29T04:36:15;96117.59;;;9.91;100.00
54038;BME280;39954;48.844;9.726;2023-05-29T04:37:18;96122.59;;;9.94;100.00
54038;BME280;39954;48.844;9.726;2023-05-29T04:38:23;96118.19;;;9.96;100.00
54038;BME280;39954;48.844;9.726;2023-05-29T04:39:27;96121.44;;;9.99;100.00
54038;BME280;39954;48.844;9.726;2023-05-29T04:40:32;96126.56;;;10.01;100.00
54038;BME280;39954;48.844;9.726;2023-05-29T04:41:35;96116.69;;;10.07;100.00
54038;BME280;39954;48.844;9.726;2023-05-29T04:42:42;96120.03;;;10.09;100.00
54038;BME280;39954;48.844;9.726;2023-05-29T04:43:46;96118.78;;;10.17;100.00
54038;BME280;39954;48.844;9.726;2023-05-29T04:44:51;96126.31;;;10.21;100.00
54038;BME280;39954;48.844;9.726;2023-05-29T04:45:54;96131.25;;;10.26;100.00
54038;BME280;39954;48.844;9.726;2023-05-29T04:47:00;96123.09;;;10.34;100.00
54038;BME280;39954;48.844;9.726;2023-05-29T04:48:04;96130.72;;;10.37;100.00
54038;BME280;39954;48.844;9.726;2023-05-29T04:49:13;96130.44;;;10.41;100.00
54038;BME280;39954;48.844;9.726;2023-05-29T04:50:16;96125.94;;;10.45;100.00
54038;BME280;39954;48.844;9.726;2023-05-29T04:51:21;96123.00;;;10.51;100.00
54038;BME280;39954;48.844;9.726;2023-05-29T04:52:23;96132.28;;;10.55;100.00
54038;BME280;39954;48.844;9.726;2023-05-29T04:53:28;96124.22;;;10.60;100.00
54038;BME280;39954;48.844;9.726;2023-05-29T04:54:31;96127.22;;;10.68;100.00
54038;BME280;39954;48.844;9.726;2023-05-29T04:55:37;96127.06;;;10.71;100.00
54038;BME280;39954;48.844;9.726;2023-05-29T04:56:39;96124.28;;;10.74;100.00
54038;BME280;39954;48.844;9.726;2023-05-29T04:57:44;96119.66;;;10.79;100.00
54038;BME280;39954;48.844;9.726;2023-05-29T04:58:46;96122.84;;;10.84;100.00
54038;BME280;39954;48.844;9.726;2023-05-29T04:59:51;96125.25;;;10.87;100.00
54038;BME280;39954;48.844;9.726;2023-05-29T05:00:53;96123.31;;;10.91;100.00
54038;BME280;39954;48.844;9.726;2023-05-29T05:02:01;96129.09;;;10.96;100.00
54038;BME280;39954;48.844;9.726;2023-05-29T05:03:05;96130.50;;;11.02;100.00
54038;BME280;39954;48.844;9.726;2023-05-29T05:04:08;96127.66;;;11.06;100.00
54038;BME280;39954;48.844;9.726;2023-05-29T05:05:15;96132.38;;;11.14;100.00
54038;BME280;39954;48.844;9.726;2023-05-29T05:06:17;96128.59;;;11.19;100.00
54038;BME280;39954;48.844;9.726;2023-05-29T05:07:22;96124.78;;;11.25;100.00
54038;BME280;39954;48.844;9.726;2023-05-29T05:08:24;96127.03;;;11.31;100.00
54038;BME280;39954;48.844;9.726;2023-05-29T05:09:29;96126.69;;;11.37;100.00
54038;BME280;39954;48.844;9.726;2023-05-29T05:10:31;96134.94;;;11.44;100.00
54038;BME280;39954;48.844;9.726;2023-05-29T05:11:36;96136.28;;;11.51;100.00
54038;BME280;39954;48.844;9.726;2023-05-29T05:12:39;96136.53;;;11.61;100.00
54038;BME280;39954;48.844;9.726;2023-05-29T05:13:44;96143.16;;;11.67;100.00
54038;BME280;39954;48.844;9.726;2023-05-29T05:14:46;96141.94;;;11.72;100.00
54038;BME280;39954;48.844;9.726;2023-05-29T05:15:51;96134.59;;;11.79;100.00
54038;BME280;39954;48.844;9.726;2023-05-29T05:16:53;96135.25;;;11.82;100.00
54038;BME280;39954;48.844;9.726;2023-05-29T05:17:58;96140.19;;;11.87;100.00
54038;BME280;39954;48.844;9.726;2023-05-29T05:19:00;96135.66;;;11.91;100.00
54038;BME280;39954;48.844;9.726;2023-05-29T05:20:06;96143.09;;;11.97;100.00
54038;BME280;39954;48.844;9.726;2023-05-29T05:21:15;96139.34;;;12.01;100.00
54038;BME280;39954;48.844;9.726;2023-05-29T05:22:17;96140.84;;;12.05;100.00
54038;BME280;39954;48.844;9.726;2023-05-29T05:23:22;96139.53;;;12.12;100.00
54038;BME280;39954;48.844;9.726;2023-05-29T05:24:24;96146.22;;;12.16;100.00
54038;BME280;39954;48.844;9.726;2023-05-29T05:25:29;96141.66;;;12.20;100.00
54038;BME280;39954;48.844;9.726;2023-05-29T05:26:31;96146.69;;;12.23;100.00
54038;BME280;39954;48.844;9.726;2023-05-29T05:27:37;96152.53;;;12.26;100.00
54038;BME280;39954;48.844;9.726;2023-05-29T05:28:39;96146.09;;;12.32;100.00
54038;BME280;39954;48.844;9.726;2023-05-29T05:29:44;96142.25;;;12.38;100.00
54038;BME280;39954;48.844;9.726;2023-05-29T05:30:46;96151.31;;;12.46;100.00
54038;BME280;39954;48.844;9.726;2023-05-29T05:31:53;96148.31;;;12.52;100.00
54038;BME280;39954;48.844;9.726;2023-05-29T05:32:55;96154.06;;;12.58;100.00
54038;BME280;39954;48.844;9.726;2023-05-29T05:34:00;96146.88;;;12.61;100.00
54038;BME280;39954;48.844;9.726;2023-05-29T05:35:03;96149.81;;;12.69;100.00
54038;BME280;39954;48.844;9.726;2023-05-29T05:36:09;96153.81;;;12.75;100.00
54038;BME280;39954;48.844;9.726;2023-05-29T05:37:15;96144.00;;;12.79;100.00
54038;BME280;39954;48.844;9.726;2023-05-29T05:38:20;96146.41;;;12.82;100.00
54038;BME280;39954;48.844;9.726;2023-05-29T05:39:22;96149.56;;;12.87;100.00
54038;BME280;39954;48.844;9.726;2023-05-29T05:40:27;96147.59;;;12.90;100.00